Hlavní strana
METAR-TAF:

METAR-TAF

Letiště :

Stockholm-Skavsta, Švédsko

zeměpisná šířka: 58-47N, zeměpisná délka: 016-55E, výška: 43 m

Aktuální stav počasí

Zpráva byla vytvořena před 29 minutami, v 04:50 UTC
Bezvětří
Teplota -1°C
Vlhkost vzduchu 80%
Tlak 1028 hPa
Viditelnost 10 km a více
Oblačno až skoro zataženo ve výšce 2700 ft

METAR: ESKN 050450Z 00000KT 9999 BKN027 M01/M04 Q1028 R26/CLRD//

Čas: 07:19 (05:19 UTC)

Předpověď počasí

Zpráva byla vytvořena před 5 hodinami a 49 minutami, v 23:30 UTC
Předpověď platná od 05 v 00 UTC do 05 v 24 UTC
Jihojihozápadní vítr 5 kt
Viditelnost 10 km a více
Žádná oblačnost pod 1500 m, nevyskytují se cumulonimby.
Pravděpodobnost 40%
od 05 v 08 UTC do 05 v 11 UTC
Oblačno až skoro zataženo ve výšce 1400 ft

TAF: ESKN 042330Z 0500/0524 21005KT CAVOK PROB40 0508/0511 BKN014

Stav a předpovědi počasí z více než 4 000 letišť (zprávy METAR a TAF).

Červené a žluté tečky na mapě představují dostupné meteorologické stanice.

Když kurzor umístíte na tečku, zobrazí se název stanice.

Pak kliknutím zobrazíte stav a předpověď počasí.

Chcete-li změnit mapu, kliknutím na zelené tlačítko se znaménkem +mapu přiblížíte, kliknutím na zelené tlačítko se znaménkem – mapu oddálíte a kliknutím na zelené šipky přejdete na sousední mapy.


METAR-TAF: